Time;durP1;ratioP1;P1;durP2;ratioP2;P2;SDS_P1;SDS_P2;PMS_P1;PMS_P2;Temp;Humidity;BMP_temperature;BMP_pressure;BME280_temperature;BME280_humidity;BME280_pressure;Samples;Min_cycle;Max_cycle;Signal;HPM_P1;HPM_P2
2020/12/10 00:01:40;;;;;;;32.57;14.30;;;3.00;99.90;;;;;;4189208;28;20507;-53
2020/12/10 00:03:41;;;;;;;37.10;14.50;;;3.00;99.90;;;;;;4189074;28;20478;-53
2020/12/10 00:05:42;;;;;;;36.53;15.67;;;3.00;99.90;;;;;;4189890;28;20463;-53
2020/12/10 00:07:44;;;;;;;39.70;15.53;;;3.00;99.90;;;;;;4192602;28;21136;-53
2020/12/10 00:09:45;;;;;;;36.63;15.70;;;3.00;99.90;;;;;;4189973;28;20819;-54
2020/12/10 00:11:47;;;;;;;37.13;15.93;;;2.90;99.90;;;;;;4192859;28;20554;-53
2020/12/10 00:13:49;;;;;;;33.50;14.43;;;2.90;99.90;;;;;;4189942;28;20476;-53
2020/12/10 00:15:50;;;;;;;37.47;14.93;;;3.00;99.90;;;;;;4188236;28;20491;-54
2020/12/10 00:17:53;;;;;;;35.97;14.80;;;2.90;99.90;;;;;;4191572;28;20477;-54
2020/12/10 00:19:54;;;;;;;41.40;15.63;;;2.90;99.90;;;;;;4191963;28;20488;-54
2020/12/10 00:21:56;;;;;;;37.73;15.37;;;2.90;99.90;;;;;;4190584;28;20491;-53
2020/12/10 00:23:57;;;;;;;39.53;15.27;;;2.90;99.90;;;;;;4189357;28;20475;-54
2020/12/10 00:25:59;;;;;;;41.60;15.83;;;2.90;99.90;;;;;;4186322;28;20503;-54
2020/12/10 00:28:00;;;;;;;36.70;15.53;;;2.90;99.90;;;;;;4187551;28;20466;-53
2020/12/10 00:30:02;;;;;;;36.67;14.63;;;2.90;99.90;;;;;;4187941;28;20483;-53
2020/12/10 00:32:04;;;;;;;37.40;15.63;;;2.90;99.90;;;;;;4189853;28;20494;-53
2020/12/10 00:34:06;;;;;;;38.40;15.20;;;2.90;99.90;;;;;;4188962;28;20494;-54
2020/12/10 00:36:08;;;;;;;36.43;15.27;;;2.90;99.90;;;;;;4189946;28;20822;-56
2020/12/10 00:38:09;;;;;;;41.23;15.17;;;2.80;99.90;;;;;;4189030;28;20493;-54
2020/12/10 00:40:11;;;;;;;34.00;14.63;;;2.80;99.90;;;;;;4191932;28;20478;-53
2020/12/10 00:42:12;;;;;;;38.03;14.73;;;2.80;99.90;;;;;;4187279;28;20498;-53
2020/12/10 00:44:13;;;;;;;37.57;14.77;;;2.80;99.90;;;;;;4187241;28;21219;-54
2020/12/10 00:46:15;;;;;;;34.17;14.87;;;2.80;99.90;;;;;;4187194;28;20472;-54
2020/12/10 00:48:16;;;;;;;37.77;14.47;;;2.80;99.90;;;;;;4189146;28;20957;-59
2020/12/10 00:50:18;;;;;;;37.57;15.00;;;2.70;99.90;;;;;;4187673;28;20471;-53
2020/12/10 00:52:24;;;;;;;37.10;14.20;;;2.70;99.90;;;;;;4188128;28;20553;-54
2020/12/10 00:54:25;;;;;;;32.73;14.07;;;2.70;99.90;;;;;;4190658;28;20486;-54
2020/12/10 00:56:34;;;;;;;34.90;14.67;;;2.70;99.90;;;;;;4189324;28;20472;-54
2020/12/10 00:58:35;;;;;;;34.40;13.93;;;2.70;99.90;;;;;;4190504;28;21004;-55
2020/12/10 01:00:36;;;;;;;32.67;13.77;;;2.70;99.90;;;;;;4190719;28;20485;-53
2020/12/10 01:02:38;;;;;;;36.47;14.57;;;2.70;99.90;;;;;;4187149;28;20495;-54
2020/12/10 01:04:39;;;;;;;32.37;13.53;;;2.70;99.90;;;;;;4189167;28;21214;-54
2020/12/10 01:06:41;;;;;;;34.37;13.23;;;2.70;99.90;;;;;;4188490;28;20479;-53
2020/12/10 01:08:43;;;;;;;31.97;13.00;;;2.70;99.90;;;;;;4187403;28;20475;-53
2020/12/10 01:10:44;;;;;;;33.87;13.13;;;2.60;99.90;;;;;;4189164;28;20502;-53
2020/12/10 01:12:46;;;;;;;32.77;13.40;;;2.60;99.90;;;;;;4188076;28;20464;-53
2020/12/10 01:14:47;;;;;;;33.07;12.63;;;2.60;99.90;;;;;;4189565;28;21198;-54
2020/12/10 01:16:48;;;;;;;33.80;13.43;;;2.60;99.90;;;;;;4190452;28;20514;-54
2020/12/10 01:18:50;;;;;;;30.57;12.47;;;2.60;99.90;;;;;;4189568;28;20474;-54
2020/12/10 01:20:51;;;;;;;32.87;13.37;;;2.60;99.90;;;;;;4189905;28;20476;-54
2020/12/10 01:22:53;;;;;;;33.00;13.27;;;2.50;99.90;;;;;;4186923;28;20485;-54
2020/12/10 01:24:55;;;;;;;30.97;13.23;;;2.50;99.90;;;;;;4185703;28;20472;-54
2020/12/10 01:26:56;;;;;;;30.37;13.07;;;2.50;99.90;;;;;;4187955;28;20510;-53
2020/12/10 01:28:58;;;;;;;33.60;13.37;;;2.50;99.90;;;;;;4188765;28;20780;-53
2020/12/10 01:30:59;;;;;;;34.87;13.30;;;2.50;99.90;;;;;;4188860;28;20478;-54
2020/12/10 01:33:00;;;;;;;29.70;12.00;;;2.50;99.90;;;;;;4187517;28;22462;-53
2020/12/10 01:35:02;;;;;;;30.83;12.00;;;2.50;99.90;;;;;;4187836;28;20475;-53
2020/12/10 01:37:03;;;;;;;33.40;12.53;;;2.50;99.90;;;;;;4187511;28;20466;-53
2020/12/10 01:39:05;;;;;;;28.17;12.10;;;2.50;99.90;;;;;;4189603;28;20486;-54
2020/12/10 01:41:07;;;;;;;29.03;12.03;;;2.50;99.90;;;;;;4188820;28;20490;-54
2020/12/10 01:43:08;;;;;;;27.60;11.70;;;2.50;99.90;;;;;;4188138;28;20498;-53
2020/12/10 01:45:10;;;;;;;27.50;11.20;;;2.50;99.90;;;;;;4188570;28;20485;-54
2020/12/10 01:47:11;;;;;;;31.87;11.83;;;2.50;99.90;;;;;;4188933;28;20479;-53
2020/12/10 01:49:13;;;;;;;31.27;11.70;;;2.50;99.90;;;;;;4189679;28;20478;-54
2020/12/10 01:51:14;;;;;;;29.57;11.73;;;2.50;99.90;;;;;;4188170;28;20485;-53
2020/12/10 01:53:15;;;;;;;25.77;10.93;;;2.50;99.90;;;;;;4187422;28;20476;-53
2020/12/10 01:55:17;;;;;;;27.30;11.17;;;2.50;99.90;;;;;;4188032;28;20470;-54
2020/12/10 01:57:19;;;;;;;30.83;11.10;;;2.50;99.90;;;;;;4186373;28;20503;-53
2020/12/10 01:59:22;;;;;;;28.83;11.57;;;2.50;99.90;;;;;;4187032;28;20828;-54
2020/12/10 02:01:23;;;;;;;31.20;11.53;;;2.50;99.90;;;;;;4191390;28;20483;-53
2020/12/10 02:03:24;;;;;;;30.07;11.87;;;2.50;99.90;;;;;;4189293;28;20821;-53
2020/12/10 02:05:27;;;;;;;30.27;12.17;;;2.50;99.90;;;;;;4186783;28;20475;-54
2020/12/10 02:07:28;;;;;;;28.77;11.87;;;2.50;99.90;;;;;;4188451;28;20814;-54
2020/12/10 02:09:30;;;;;;;28.23;11.87;;;2.40;99.90;;;;;;4186791;28;20486;-53
2020/12/10 02:11:32;;;;;;;29.93;11.63;;;2.50;99.90;;;;;;4187465;28;21045;-53
2020/12/10 02:13:33;;;;;;;26.43;11.03;;;2.40;99.90;;;;;;4187769;28;20800;-54
2020/12/10 02:15:35;;;;;;;28.80;11.87;;;2.40;99.90;;;;;;4186672;28;20475;-53
2020/12/10 02:17:37;;;;;;;28.20;11.07;;;2.40;99.90;;;;;;4188965;28;20465;-53
2020/12/10 02:19:38;;;;;;;25.43;10.77;;;2.40;99.90;;;;;;4192227;28;20478;-53
2020/12/10 02:21:40;;;;;;;24.93;10.13;;;2.30;99.90;;;;;;4192133;28;20485;-53
2020/12/10 02:23:42;;;;;;;25.90;10.93;;;2.30;99.90;;;;;;4187483;28;21099;-53
2020/12/10 02:25:43;;;;;;;26.93;10.53;;;2.30;99.90;;;;;;4188239;28;20470;-53
2020/12/10 02:27:44;;;;;;;26.63;10.43;;;2.30;99.90;;;;;;4187147;28;20470;-54
2020/12/10 02:29:46;;;;;;;28.00;10.83;;;2.30;99.90;;;;;;4188592;28;20976;-53
2020/12/10 02:31:47;;;;;;;25.03;10.13;;;2.30;99.90;;;;;;4187053;28;20499;-54
2020/12/10 02:33:49;;;;;;;25.03;10.63;;;2.30;99.90;;;;;;4188032;28;20475;-53
2020/12/10 02:35:50;;;;;;;26.07;10.50;;;2.30;99.90;;;;;;4187203;28;20501;-53
2020/12/10 02:37:56;;;;;;;23.63;10.43;;;2.30;99.90;;;;;;4186034;28;20478;-53
2020/12/10 02:39:58;;;;;;;24.53;11.53;;;2.20;99.90;;;;;;4188473;28;21060;-55
2020/12/10 02:42:00;;;;;;;26.93;10.37;;;2.30;99.90;;;;;;4185042;28;21241;-53
2020/12/10 02:44:01;;;;;;;26.00;10.83;;;2.20;99.90;;;;;;4188355;28;20490;-54
2020/12/10 02:46:02;;;;;;;24.40;10.10;;;2.20;99.90;;;;;;4189460;28;20830;-54
2020/12/10 02:48:04;;;;;;;25.00;9.93;;;2.20;99.90;;;;;;4190860;28;20514;-54
2020/12/10 02:50:06;;;;;;;24.33;10.23;;;2.20;99.90;;;;;;4195005;28;20470;-54
2020/12/10 02:52:07;;;;;;;24.20;9.93;;;2.20;99.90;;;;;;4191423;28;20479;-54
2020/12/10 02:54:08;;;;;;;24.20;10.33;;;2.20;99.90;;;;;;4189628;28;20478;-54
2020/12/10 02:56:11;;;;;;;24.80;10.53;;;2.20;99.90;;;;;;4191762;28;20469;-54
2020/12/10 02:58:13;;;;;;;23.93;10.47;;;2.20;99.90;;;;;;4190607;28;20513;-53
2020/12/10 03:00:15;;;;;;;21.13;10.20;;;2.20;99.90;;;;;;4190830;28;20478;-54
2020/12/10 03:02:16;;;;;;;23.57;10.50;;;2.20;99.90;;;;;;4188935;28;20490;-53
2020/12/10 03:04:17;;;;;;;20.73;9.20;;;2.20;99.90;;;;;;4189839;28;20475;-53
2020/12/10 03:06:18;;;;;;;21.90;9.53;;;2.10;99.90;;;;;;4190507;28;20469;-54
2020/12/10 03:08:20;;;;;;;24.43;9.67;;;2.10;99.90;;;;;;4190743;28;20481;-53
2020/12/10 03:10:21;;;;;;;24.53;10.23;;;2.10;99.90;;;;;;4191701;28;20477;-53
2020/12/10 03:12:23;;;;;;;21.70;10.00;;;2.10;99.90;;;;;;4189830;28;21405;-53
2020/12/10 03:14:25;;;;;;;24.73;10.00;;;2.10;99.90;;;;;;4190123;28;20492;-53
2020/12/10 03:16:26;;;;;;;22.73;9.33;;;2.10;99.90;;;;;;4190275;28;20493;-54
2020/12/10 03:18:29;;;;;;;25.07;9.70;;;2.10;99.90;;;;;;4191923;28;21392;-53
2020/12/10 03:20:31;;;;;;;21.67;9.03;;;2.10;99.90;;;;;;4190167;28;20475;-53
2020/12/10 03:22:32;;;;;;;22.47;9.40;;;2.10;99.90;;;;;;4189834;28;20494;-54
2020/12/10 03:24:33;;;;;;;23.30;9.77;;;2.10;99.90;;;;;;4189709;28;20481;-53
2020/12/10 03:26:35;;;;;;;21.73;9.17;;;2.10;99.90;;;;;;4191193;28;20477;-53
2020/12/10 03:28:37;;;;;;;19.07;8.97;;;2.10;99.90;;;;;;4192185;28;21034;-54
2020/12/10 03:30:38;;;;;;;20.17;9.33;;;2.10;99.90;;;;;;4191897;28;20474;-53
2020/12/10 03:32:40;;;;;;;20.13;8.93;;;2.10;99.90;;;;;;4191530;28;20467;-54
2020/12/10 03:34:42;;;;;;;21.27;9.30;;;2.00;99.90;;;;;;4188584;28;20475;-55
2020/12/10 03:36:48;;;;;;;24.07;9.87;;;2.00;99.90;;;;;;4193258;28;20471;-53
2020/12/10 03:38:49;;;;;;;19.70;8.70;;;2.00;99.90;;;;;;4188543;28;20502;-54
2020/12/10 03:40:50;;;;;;;22.00;8.63;;;2.00;99.90;;;;;;4189521;28;20469;-53
2020/12/10 03:42:51;;;;;;;20.37;8.47;;;2.00;99.90;;;;;;4190285;28;20501;-52
2020/12/10 03:44:54;;;;;;;18.90;8.63;;;2.00;99.90;;;;;;4191006;28;20485;-52
2020/12/10 03:46:55;;;;;;;24.03;9.77;;;2.00;99.90;;;;;;4191930;28;20489;-52
2020/12/10 03:48:57;;;;;;;21.27;8.73;;;2.00;99.90;;;;;;4193302;28;20474;-53
2020/12/10 03:50:58;;;;;;;21.70;8.87;;;2.00;99.90;;;;;;4190147;28;20475;-52
2020/12/10 03:53:00;;;;;;;21.03;9.40;;;2.00;99.90;;;;;;4189997;28;20474;-52
2020/12/10 03:55:07;;;;;;;23.00;9.10;;;2.20;99.90;;;;;;4192093;28;20479;-52
2020/12/10 03:57:08;;;;;;;17.80;8.27;;;1.90;99.90;;;;;;4190798;28;20936;-52
2020/12/10 03:59:10;;;;;;;23.60;8.90;;;2.00;99.90;;;;;;4191336;28;20501;-53
2020/12/10 04:01:12;;;;;;;19.30;8.20;;;2.00;99.90;;;;;;4187315;28;20565;-52
2020/12/10 04:03:14;;;;;;;21.67;8.90;;;1.90;99.90;;;;;;4188867;28;20494;-52
2020/12/10 04:05:15;;;;;;;22.10;9.17;;;2.00;99.90;;;;;;4190871;28;20490;-53
2020/12/10 04:07:16;;;;;;;17.87;7.47;;;2.00;99.90;;;;;;4187796;28;20472;-53
2020/12/10 04:09:18;;;;;;;21.20;9.03;;;2.00;99.90;;;;;;4189217;28;20479;-52
2020/12/10 04:11:19;;;;;;;21.37;8.97;;;2.00;99.90;;;;;;4189298;28;20992;-52
2020/12/10 04:13:21;;;;;;;20.33;9.00;;;2.00;99.90;;;;;;4192504;28;20462;-53
2020/12/10 04:15:22;;;;;;;17.40;7.40;;;1.90;99.90;;;;;;4194991;28;20482;-53
2020/12/10 04:17:24;;;;;;;20.43;7.80;;;1.90;99.90;;;;;;4191779;28;20493;-53
2020/12/10 04:19:26;;;;;;;20.37;7.97;;;2.00;99.90;;;;;;4191151;28;21000;-53
2020/12/10 04:21:27;;;;;;;17.77;8.07;;;1.90;99.90;;;;;;4188146;28;20480;-53
2020/12/10 04:23:28;;;;;;;17.67;7.37;;;1.90;99.90;;;;;;4189801;28;20518;-53
2020/12/10 04:25:30;;;;;;;20.07;8.37;;;1.90;99.90;;;;;;4189407;28;20490;-52
2020/12/10 04:27:32;;;;;;;20.03;8.43;;;1.90;99.90;;;;;;4188543;28;20479;-52
2020/12/10 04:29:34;;;;;;;21.97;8.10;;;1.90;99.90;;;;;;4188759;28;20505;-53
2020/12/10 04:31:36;;;;;;;19.80;7.73;;;1.90;99.90;;;;;;4187042;28;20467;-53
2020/12/10 04:33:39;;;;;;;18.30;7.40;;;1.90;99.90;;;;;;4192093;28;20519;-52
2020/12/10 04:35:42;;;;;;;20.80;8.83;;;1.90;99.90;;;;;;4190728;28;20480;-52
2020/12/10 04:37:44;;;;;;;21.53;8.60;;;1.90;99.90;;;;;;4189957;28;20956;-53
2020/12/10 04:39:46;;;;;;;18.97;8.57;;;1.90;99.90;;;;;;4192113;28;20481;-53
2020/12/10 04:41:48;;;;;;;21.53;8.40;;;1.90;99.90;;;;;;4187477;28;20495;-53
2020/12/10 04:43:49;;;;;;;21.40;7.53;;;1.90;99.90;;;;;;4188421;28;20507;-53
2020/12/10 04:45:51;;;;;;;18.87;7.33;;;1.90;99.90;;;;;;4189331;28;20467;-52
2020/12/10 04:47:55;;;;;;;20.20;8.03;;;1.90;99.90;;;;;;4189153;28;20488;-52
2020/12/10 04:50:02;;;;;;;18.40;7.37;;;2.00;99.90;;;;;;4190719;28;20484;-52
2020/12/10 04:52:03;;;;;;;13.33;6.20;;;1.90;99.90;;;;;;4191089;28;20535;-53
2020/12/10 04:54:05;;;;;;;16.47;7.47;;;1.90;99.90;;;;;;4190087;28;20473;-53
2020/12/10 04:56:08;;;;;;;14.60;6.20;;;1.90;99.90;;;;;;4192544;28;21020;-52
2020/12/10 04:58:17;;;;;;;16.10;7.17;;;1.90;99.90;;;;;;4190956;28;20505;-52
2020/12/10 05:00:19;;;;;;;15.63;7.00;;;1.90;99.90;;;;;;4187606;28;20473;-54
2020/12/10 05:02:20;;;;;;;16.93;7.03;;;1.90;99.90;;;;;;4189006;28;20939;-53
2020/12/10 05:04:26;;;;;;;13.20;5.97;;;1.90;99.90;;;;;;4189480;28;20468;-53
2020/12/10 05:06:28;;;;;;;15.97;6.87;;;1.90;99.90;;;;;;4187290;28;20474;-52
2020/12/10 05:08:31;;;;;;;16.00;7.00;;;1.90;99.90;;;;;;4189507;28;20473;-52
2020/12/10 05:10:42;;;;;;;16.47;6.77;;;1.90;99.90;;;;;;4187090;28;20470;-52
2020/12/10 05:12:45;;;;;;;19.77;7.47;;;1.90;99.90;;;;;;4187945;28;20484;-53
2020/12/10 05:14:46;;;;;;;15.30;6.47;;;1.90;99.90;;;;;;4192128;28;21047;-52
2020/12/10 05:17:09;;;;;;;18.57;7.70;;;1.90;99.90;;;;;;4191855;28;20486;-53
2020/12/10 05:19:18;;;;;;;19.77;7.67;;;1.90;99.90;;;;;;4188614;28;20977;-53
2020/12/10 05:21:19;;;;;;;19.00;7.63;;;1.90;99.90;;;;;;4188064;28;20466;-52
2020/12/10 05:23:31;;;;;;;17.40;7.70;;;1.90;99.90;;;;;;4189563;28;20486;-53
2020/12/10 05:25:46;;;;;;;14.37;6.57;;;1.90;99.90;;;;;;4188288;28;20457;-53
2020/12/10 05:27:59;;;;;;;15.77;7.03;;;1.90;99.90;;;;;;4190337;28;20482;-52
2020/12/10 05:30:01;;;;;;;16.27;6.47;;;1.90;99.90;;;;;;4189516;28;20478;-52
2020/12/10 05:32:02;;;;;;;18.33;6.97;;;1.90;99.90;;;;;;4188646;28;20923;-53
2020/12/10 05:34:03;;;;;;;14.47;6.63;;;1.90;99.90;;;;;;4186707;28;20486;-52
2020/12/10 05:36:09;;;;;;;18.73;7.33;;;1.90;99.90;;;;;;4186726;28;20494;-52
2020/12/10 05:38:12;;;;;;;17.57;7.30;;;1.90;99.90;;;;;;4189478;28;20562;-52
2020/12/10 05:40:15;;;;;;;15.43;6.73;;;1.90;99.90;;;;;;4187821;28;20482;-52
2020/12/10 05:42:17;;;;;;;18.07;7.40;;;1.90;99.90;;;;;;4190616;28;20533;-52
2020/12/10 05:44:20;;;;;;;15.23;7.10;;;1.90;99.90;;;;;;4193626;28;20475;-52
2020/12/10 05:46:24;;;;;;;16.67;6.93;;;1.90;99.90;;;;;;4188233;28;20491;-53
2020/12/10 05:48:26;;;;;;;17.27;7.40;;;1.90;99.90;;;;;;4187576;28;20528;-52
2020/12/10 05:50:31;;;;;;;16.73;6.67;;;1.80;99.90;;;;;;4187047;28;20484;-52
2020/12/10 05:52:37;;;;;;;15.87;6.83;;;1.90;99.90;;;;;;4180465;28;20482;-53
2020/12/10 05:54:46;;;;;;;19.53;7.73;;;1.90;99.90;;;;;;4188328;28;20586;-53
2020/12/10 05:56:55;;;;;;;18.00;7.43;;;1.80;99.90;;;;;;4188894;28;20588;-52
2020/12/10 05:58:56;;;;;;;16.87;7.47;;;1.90;99.90;;;;;;4187877;28;20506;-53
2020/12/10 06:00:58;;;;;;;17.53;7.27;;;1.80;99.90;;;;;;4188166;28;20468;-53
2020/12/10 06:03:00;;;;;;;17.23;7.70;;;1.80;99.90;;;;;;4189384;28;20494;-52
2020/12/10 06:05:03;;;;;;;18.70;7.73;;;1.90;99.90;;;;;;4188415;28;20473;-52
2020/12/10 06:07:10;;;;;;;19.03;7.50;;;1.90;99.90;;;;;;4187468;28;20468;-52
2020/12/10 06:09:15;;;;;;;21.83;8.60;;;1.80;99.90;;;;;;4188515;28;21456;-52
2020/12/10 06:11:21;;;;;;;17.37;7.73;;;1.80;99.90;;;;;;4189373;28;20502;-55
2020/12/10 06:13:25;;;;;;;20.33;8.20;;;1.80;99.90;;;;;;4189708;28;20485;-55
2020/12/10 06:15:28;;;;;;;20.53;8.20;;;1.80;99.90;;;;;;4187010;28;20487;-55
2020/12/10 06:17:29;;;;;;;21.03;8.63;;;1.80;99.90;;;;;;4188393;28;20967;-56
2020/12/10 06:19:42;;;;;;;19.13;8.70;;;1.80;99.90;;;;;;4188026;28;20473;-54
2020/12/10 06:21:51;;;;;;;20.63;7.83;;;1.80;99.90;;;;;;4188242;28;20468;-56
2020/12/10 06:23:56;;;;;;;19.60;8.17;;;1.80;99.90;;;;;;4189042;28;20483;-55
2020/12/10 06:29:12;;;;;;;15.80;7.50;;;1.80;99.90;;;;;;4186470;28;20556;-59
2020/12/10 06:31:13;;;;;;;18.93;7.73;;;1.90;99.90;;;;;;4187656;28;20508;-54
2020/12/10 06:33:35;;;;;;;17.23;6.97;;;1.90;99.90;;;;;;4188245;28;20467;-56
2020/12/10 06:35:37;;;;;;;19.23;8.10;;;1.90;99.90;;;;;;4187103;28;21263;-56
2020/12/10 06:37:47;;;;;;;18.83;7.70;;;1.90;99.90;;;;;;4187676;28;20466;-56
2020/12/10 06:42:07;;;;;;;20.27;7.40;;;1.90;99.90;;;;;;4190778;28;20517;-57
2020/12/10 06:44:32;;;;;;;20.17;8.77;;;1.90;99.90;;;;;;4190212;28;20478;-56
2020/12/10 06:46:48;;;;;;;15.23;7.13;;;1.90;99.90;;;;;;4188567;28;20470;-55
2020/12/10 06:48:51;;;;;;;21.23;8.07;;;1.90;99.90;;;;;;4187564;28;20475;-60
2020/12/10 06:51:10;;;;;;;17.63;7.43;;;1.90;99.90;;;;;;4188055;28;20510;-55
2020/12/10 06:53:28;;;;;;;19.77;8.60;;;1.90;99.90;;;;;;4186327;28;20483;-55
2020/12/10 06:55:30;;;;;;;21.40;8.13;;;1.90;99.90;;;;;;4187886;28;20469;-56
2020/12/10 06:58:01;;;;;;;19.77;8.20;;;1.90;99.90;;;;;;4187401;28;20466;-55
2020/12/10 07:00:04;;;;;;;21.53;9.10;;;1.90;99.90;;;;;;4184970;28;20537;-55
2020/12/10 07:02:16;;;;;;;21.97;9.87;;;1.80;99.90;;;;;;4185486;28;20468;-55
2020/12/10 07:04:48;;;;;;;21.07;8.63;;;1.80;99.90;;;;;;4183667;28;20464;-54
2020/12/10 07:07:14;;;;;;;19.67;8.40;;;1.90;99.90;;;;;;4185225;28;20562;-54
2020/12/10 07:11:36;;;;;;;22.00;9.17;;;1.80;99.90;;;;;;4187919;28;20838;-56
2020/12/10 07:13:37;;;;;;;21.20;8.63;;;1.80;99.90;;;;;;4189447;28;20465;-56
2020/12/10 07:15:40;;;;;;;23.33;9.47;;;1.80;99.90;;;;;;4191534;28;20483;-56
2020/12/10 07:17:46;;;;;;;20.97;8.67;;;1.80;99.90;;;;;;4184061;28;20471;-55
2020/12/10 07:19:47;;;;;;;23.37;10.27;;;1.80;99.90;;;;;;4186237;28;20476;-53
2020/12/10 07:21:50;;;;;;;20.73;9.20;;;1.80;99.90;;;;;;4186563;28;20474;-55
2020/12/10 07:23:52;;;;;;;18.93;9.03;;;1.80;99.90;;;;;;4186775;28;20481;-55
2020/12/10 07:25:53;;;;;;;23.53;9.27;;;1.80;99.90;;;;;;4186552;28;20502;-55
2020/12/10 07:27:55;;;;;;;22.60;9.43;;;1.80;99.90;;;;;;4186089;28;20465;-54
2020/12/10 07:34:32;;;;;;;21.60;9.50;;;1.90;99.90;;;;;;4188870;28;20783;-54
2020/12/10 07:36:34;;;;;;;23.03;9.97;;;1.90;99.90;;;;;;4189526;28;20513;-55
2020/12/10 07:38:36;;;;;;;25.17;11.80;;;1.80;99.90;;;;;;4188507;28;21408;-55
2020/12/10 07:40:53;;;;;;;22.63;10.10;;;1.90;99.90;;;;;;4190768;28;20221;-56
2020/12/10 07:43:02;;;;;;;23.87;9.57;;;1.90;99.90;;;;;;4189631;28;20491;-55
2020/12/10 07:45:12;;;;;;;22.97;9.87;;;1.80;99.90;;;;;;4189414;28;20475;-55
2020/12/10 07:47:14;;;;;;;25.23;9.83;;;1.90;99.90;;;;;;4189005;28;22343;-55
2020/12/10 07:49:28;;;;;;;25.23;9.73;;;1.80;99.90;;;;;;4187753;28;20488;-55
2020/12/10 07:51:29;;;;;;;23.00;9.83;;;1.80;99.90;;;;;;4188282;28;20937;-55
2020/12/10 07:53:30;;;;;;;21.83;9.73;;;1.80;99.90;;;;;;4189135;28;20484;-55
2020/12/10 07:55:36;;;;;;;21.77;9.63;;;1.80;99.90;;;;;;4192611;28;20477;-55
2020/12/10 07:57:48;;;;;;;26.23;12.43;;;1.80;99.90;;;;;;4189767;28;20546;-55
2020/12/10 08:00:00;;;;;;;27.03;11.37;;;1.80;99.90;;;;;;4188830;28;20216;-58
2020/12/10 08:02:12;;;;;;;29.85;13.07;;;1.90;99.90;;;;;;4188193;28;20461;-55
2020/12/10 08:04:30;;;;;;;26.83;11.70;;;1.90;99.90;;;;;;4188340;28;22003;-60
2020/12/10 08:08:50;;;;;;;28.43;11.00;;;1.90;99.90;;;;;;4187452;28;20475;-53
2020/12/10 08:11:05;;;;;;;24.33;10.90;;;1.90;99.90;;;;;;4188803;28;20493;-53
2020/12/10 08:13:17;;;;;;;21.93;9.53;;;1.90;99.90;;;;;;4191299;28;20463;-53
2020/12/10 08:15:27;;;;;;;25.40;10.60;;;1.90;99.90;;;;;;4193802;28;20474;-55
2020/12/10 08:17:31;;;;;;;27.00;12.23;;;2.00;99.90;;;;;;4190683;28;20577;-53
2020/12/10 08:19:34;;;;;;;20.37;9.97;;;2.00;99.90;;;;;;4189664;28;20216;-53
2020/12/10 08:21:35;;;;;;;20.73;9.20;;;2.00;99.90;;;;;;4189555;28;20472;-56
2020/12/10 08:23:45;;;;;;;22.10;10.27;;;2.00;99.90;;;;;;4187911;28;20454;-53
2020/12/10 08:25:47;;;;;;;23.00;10.73;;;2.00;99.90;;;;;;4189729;28;20459;-57
2020/12/10 08:30:10;;;;;;;21.77;10.27;;;2.00;99.90;;;;;;4187671;28;20452;-54
2020/12/10 08:32:13;;;;;;;25.08;11.35;;;2.00;99.90;;;;;;4186779;28;20466;-55
2020/12/10 08:36:37;;;;;;;24.97;9.73;;;2.00;99.90;;;;;;4188949;28;20551;-53
2020/12/10 08:38:50;;;;;;;21.57;9.47;;;2.00;99.90;;;;;;4189055;28;20493;-56
2020/12/10 08:41:02;;;;;;;22.57;9.77;;;2.00;99.90;;;;;;4188083;28;20497;-56
2020/12/10 08:45:32;;;;;;;22.05;9.43;;;2.10;99.90;;;;;;4191711;28;22510;-53
2020/12/10 08:47:48;;;;;;;20.43;9.23;;;2.10;99.90;;;;;;4188379;28;20263;-53
2020/12/10 08:50:22;;;;;;;23.77;9.67;;;2.10;99.90;;;;;;4184453;28;20471;-54
2020/12/10 08:52:24;;;;;;;23.48;11.65;;;2.10;99.90;;;;;;4186042;28;20450;-54
2020/12/10 08:56:41;;;;;;;19.93;8.67;;;2.20;99.90;;;;;;4189934;28;20528;-54
2020/12/10 08:58:43;;;;;;;19.67;9.13;;;2.20;99.90;;;;;;4188287;28;20497;-55
2020/12/10 09:00:45;;;;;;;23.50;9.13;;;2.20;99.90;;;;;;4186522;28;20556;-53
2020/12/10 09:02:46;;;;;;;23.87;9.43;;;2.20;99.90;;;;;;4190238;28;20490;-54
2020/12/10 09:07:04;;;;;;;21.73;9.33;;;2.20;99.90;;;;;;4186964;28;20955;-54
2020/12/10 09:09:06;;;;;;;20.13;8.60;;;2.20;99.90;;;;;;4186511;28;20471;-54
2020/12/10 09:11:08;;;;;;;21.00;9.60;;;2.20;99.90;;;;;;4186339;28;20475;-55
2020/12/10 09:20:22;;;;;;;19.73;8.57;;;2.40;99.90;;;;;;4189222;28;20843;-53
2020/12/10 09:24:40;;;;;;;19.97;8.57;;;2.40;99.90;;;;;;4187547;28;20474;-56
2020/12/10 09:26:41;;;;;;;22.55;11.18;;;2.50;99.90;;;;;;4188837;28;20453;-53
2020/12/10 09:28:43;;;;;;;19.57;10.00;;;2.60;99.90;;;;;;4191464;28;20221;-53
2020/12/10 09:33:00;;;;;;;20.70;9.50;;;2.60;99.90;;;;;;4186789;28;20546;-55
2020/12/10 09:37:26;;;;;;;20.13;9.98;;;2.70;99.90;;;;;;4187274;28;20460;-55
2020/12/10 09:39:29;;;;;;;22.80;10.37;;;2.70;99.90;;;;;;4187296;28;20218;-55
2020/12/10 09:43:47;;;;;;;21.73;10.13;;;2.90;99.90;;;;;;4187524;28;20232;-53
2020/12/10 09:45:53;;;;;;;18.90;9.17;;;2.90;99.90;;;;;;4189688;28;20476;-55
2020/12/10 09:48:02;;;;;;;21.27;10.85;;;3.00;99.90;;;;;;4186890;28;20639;-54
2020/12/10 09:52:48;;;;;;;17.80;8.60;;;3.10;99.90;;;;;;4186028;28;20519;-55
2020/12/10 09:55:00;;;;;;;18.50;8.73;;;3.10;99.90;;;;;;4186773;28;21058;-54
2020/12/10 09:57:10;;;;;;;21.55;9.20;;;3.10;99.90;;;;;;4189800;28;20454;-55
2020/12/10 10:01:27;;;;;;;16.83;8.57;;;3.20;99.90;;;;;;4186888;28;20472;-55
2020/12/10 10:03:52;;;;;;;21.77;8.70;;;3.20;99.90;;;;;;4187276;28;20505;-55
2020/12/10 10:05:54;;;;;;;15.83;8.07;;;3.30;99.90;;;;;;4184729;28;20470;-54
2020/12/10 10:07:55;;;;;;;20.63;8.93;;;3.40;99.90;;;;;;4187026;28;20549;-55
2020/12/10 10:10:00;;;;;;;17.53;8.90;;;3.40;99.90;;;;;;4188178;28;20961;-55
2020/12/10 10:12:04;;;;;;;18.45;8.25;;;3.50;99.90;;;;;;4188019;28;20458;-54
2020/12/10 10:14:13;;;;;;;20.40;10.32;;;3.50;99.90;;;;;;4188280;28;20454;-55
2020/12/10 10:18:32;;;;;;;17.97;8.23;;;3.70;99.90;;;;;;4190117;28;20555;-55
2020/12/10 10:20:33;;;;;;;20.67;8.83;;;3.70;99.90;;;;;;4186698;28;20509;-55
2020/12/10 10:22:38;;;;;;;17.47;8.20;;;3.70;99.90;;;;;;4186587;28;20950;-55
2020/12/10 10:24:41;;;;;;;19.83;9.23;;;3.70;99.90;;;;;;4187756;28;21217;-55
2020/12/10 10:26:43;;;;;;;20.17;9.10;;;3.70;99.90;;;;;;4185500;28;22060;-55
2020/12/10 10:28:47;;;;;;;19.37;10.57;;;3.70;99.90;;;;;;4184392;28;20571;-56
2020/12/10 10:30:49;;;;;;;19.02;8.68;;;3.90;99.90;;;;;;4186958;28;20665;-55
2020/12/10 10:32:50;;;;;;;16.37;8.43;;;3.90;99.90;;;;;;4186623;28;20264;-55
2020/12/10 10:41:45;;;;;;;18.03;8.10;;;3.90;99.90;;;;;;4187129;28;20447;-54
2020/12/10 10:48:37;;;;;;;17.10;7.97;;;3.80;99.70;;;;;;4183308;28;20480;-56
2020/12/10 10:50:41;;;;;;;17.45;9.55;;;3.90;99.80;;;;;;4184962;28;20453;-55
2020/12/10 10:53:04;;;;;;;25.67;11.47;;;4.00;99.90;;;;;;4184944;28;20220;-55
2020/12/10 10:59:41;;;;;;;18.43;8.47;;;3.90;99.60;;;;;;4189659;28;21060;-54
2020/12/10 11:02:03;;;;;;;17.43;7.63;;;3.90;99.40;;;;;;4189114;28;20488;-55
2020/12/10 11:04:04;;;;;;;18.13;8.60;;;3.90;99.50;;;;;;4184477;28;20452;-55
2020/12/10 11:08:44;;;;;;;17.57;8.13;;;4.00;99.20;;;;;;4187806;28;20205;-56
2020/12/10 11:10:51;;;;;;;20.87;8.07;;;4.00;99.30;;;;;;4188139;28;20909;-56
2020/12/10 11:15:09;;;;;;;15.40;7.43;;;4.00;99.40;;;;;;4190189;28;20513;-55
2020/12/10 11:17:10;;;;;;;17.73;7.87;;;3.90;99.20;;;;;;4193340;28;20495;-54
2020/12/10 11:19:12;;;;;;;17.00;7.80;;;3.90;98.40;;;;;;4192595;28;20467;-55
2020/12/10 11:21:25;;;;;;;18.03;8.60;;;3.80;99.00;;;;;;4190958;28;20469;-58
2020/12/10 11:23:46;;;;;;;16.20;7.77;;;3.80;98.90;;;;;;4188437;28;20479;-54
2020/12/10 11:26:11;;;;;;;19.10;8.10;;;3.80;99.40;;;;;;4191972;28;20481;-55
2020/12/10 11:28:13;;;;;;;18.50;7.83;;;3.80;99.20;;;;;;4189151;28;20478;-55
2020/12/10 11:34:47;;;;;;;17.07;8.10;;;3.70;98.90;;;;;;4187264;28;20517;-55
2020/12/10 11:36:48;;;;;;;19.67;8.63;;;3.70;99.10;;;;;;4188981;28;20471;-56
2020/12/10 11:38:49;;;;;;;18.50;8.80;;;3.70;99.20;;;;;;4184802;28;20493;-56
2020/12/10 11:40:51;;;;;;;18.43;9.07;;;3.70;99.30;;;;;;4189585;28;20459;-55
2020/12/10 11:42:52;;;;;;;20.83;8.67;;;3.70;99.30;;;;;;4190438;28;20484;-55
2020/12/10 11:45:15;;;;;;;16.10;7.90;;;3.70;99.30;;;;;;4191421;28;20946;-56
2020/12/10 11:47:23;;;;;;;19.63;9.70;;;3.80;99.10;;;;;;4191795;28;20449;-55
2020/12/10 11:49:25;;;;;;;18.08;9.80;;;3.80;99.20;;;;;;4192237;28;20727;-56
2020/12/10 11:51:27;;;;;;;18.17;10.02;;;3.90;99.00;;;;;;4191453;28;20465;-55
2020/12/10 11:55:50;;;;;;;18.13;9.03;;;4.10;98.90;;;;;;4190285;28;20213;-55
2020/12/10 11:57:54;;;;;;;17.37;8.87;;;4.10;98.90;;;;;;4190532;28;20495;-55
2020/12/10 11:59:55;;;;;;;18.53;8.73;;;4.00;98.70;;;;;;4190583;28;20824;-56
2020/12/10 12:01:57;;;;;;;17.10;8.27;;;4.00;98.90;;;;;;4186465;28;20860;-55